<?xml version="1.0" encoding="utf-8"?>
<gpx xmlns:xsi="http://www.w3.org/2001/XMLSchema-instance" xmlns:xsd="http://www.w3.org/2001/XMLSchema" version="1.1" creator="Shapelink.com" xmlns="http://www.topografix.com/GPX/1/1" xmlns:gpxtpx="http://www.garmin.com/xmlschemas/TrackPointExtension/v1">
  <metadata>
    <name>Løping 2.48 km, 2012-07-16</name>
    <desc></desc>
    <author><name>Mikael Blom</name></author> 
    <time>2012-07-16T10:39:26Z</time>
  </metadata>
  <trk>
    <name>Løping 2.48 km, 2012-07-16</name>
    <trkseg>
      <trkpt lat="59.9990073" lon="17.7414481">
        <ele>0</ele>
        <time>2012-07-16T10:39:26Z</time>
      </trkpt>
      <trkpt lat="59.9990412" lon="17.7409191">
        <ele>0</ele>
        <time>2012-07-16T10:39:31Z</time>
      </trkpt>
      <trkpt lat="59.9990246" lon="17.7408331">
        <ele>0</ele>
        <time>2012-07-16T10:39:33Z</time>
      </trkpt>
      <trkpt lat="59.9989453" lon="17.7404595">
        <ele>0</ele>
        <time>2012-07-16T10:39:37Z</time>
      </trkpt>
      <trkpt lat="59.9988038" lon="17.740161">
        <ele>0</ele>
        <time>2012-07-16T10:39:40Z</time>
      </trkpt>
      <trkpt lat="59.9986457" lon="17.739788">
        <ele>0</ele>
        <time>2012-07-16T10:39:45Z</time>
      </trkpt>
      <trkpt lat="59.9987009" lon="17.739807">
        <ele>0</ele>
        <time>2012-07-16T10:39:46Z</time>
      </trkpt>
      <trkpt lat="59.9986045" lon="17.7396211">
        <ele>0</ele>
        <time>2012-07-16T10:39:51Z</time>
      </trkpt>
      <trkpt lat="59.9985506" lon="17.7394461">
        <ele>0</ele>
        <time>2012-07-16T10:39:56Z</time>
      </trkpt>
      <trkpt lat="59.998464" lon="17.7386528">
        <ele>0</ele>
        <time>2012-07-16T10:40:04Z</time>
      </trkpt>
      <trkpt lat="59.9983712" lon="17.7385356">
        <ele>0</ele>
        <time>2012-07-16T10:40:06Z</time>
      </trkpt>
      <trkpt lat="59.9981072" lon="17.7382435">
        <ele>0</ele>
        <time>2012-07-16T10:40:12Z</time>
      </trkpt>
      <trkpt lat="59.9979523" lon="17.7381012">
        <ele>0</ele>
        <time>2012-07-16T10:40:18Z</time>
      </trkpt>
      <trkpt lat="59.9979277" lon="17.7381282">
        <ele>0</ele>
        <time>2012-07-16T10:40:23Z</time>
      </trkpt>
      <trkpt lat="59.9979121" lon="17.7381219">
        <ele>0</ele>
        <time>2012-07-16T10:40:24Z</time>
      </trkpt>
      <trkpt lat="59.9978722" lon="17.7377902">
        <ele>3.02124</ele>
        <time>2012-07-16T10:40:27Z</time>
      </trkpt>
      <trkpt lat="59.99787" lon="17.7373252">
        <ele>24.1703</ele>
        <time>2012-07-16T10:40:32Z</time>
      </trkpt>
      <trkpt lat="59.9979522" lon="17.7369746">
        <ele>55.4131</ele>
        <time>2012-07-16T10:40:37Z</time>
      </trkpt>
      <trkpt lat="59.9978326" lon="17.7368913">
        <ele>59.2584</ele>
        <time>2012-07-16T10:40:40Z</time>
      </trkpt>
      <trkpt lat="59.9976643" lon="17.7368155">
        <ele>60.2197</ele>
        <time>2012-07-16T10:40:45Z</time>
      </trkpt>
      <trkpt lat="59.9975351" lon="17.7367244">
        <ele>60.2197</ele>
        <time>2012-07-16T10:40:48Z</time>
      </trkpt>
      <trkpt lat="59.9973439" lon="17.7366371">
        <ele>61.181</ele>
        <time>2012-07-16T10:40:54Z</time>
      </trkpt>
      <trkpt lat="59.9972502" lon="17.7366032">
        <ele>62.6229</ele>
        <time>2012-07-16T10:40:58Z</time>
      </trkpt>
      <trkpt lat="59.9972149" lon="17.73663">
        <ele>64.0651</ele>
        <time>2012-07-16T10:41:02Z</time>
      </trkpt>
      <trkpt lat="59.9971312" lon="17.7367545">
        <ele>65.5071</ele>
        <time>2012-07-16T10:41:11Z</time>
      </trkpt>
      <trkpt lat="59.9970846" lon="17.736771">
        <ele>67.9103</ele>
        <time>2012-07-16T10:41:15Z</time>
      </trkpt>
      <trkpt lat="59.9969785" lon="17.7367284">
        <ele>68.3909</ele>
        <time>2012-07-16T10:41:18Z</time>
      </trkpt>
      <trkpt lat="59.9967535" lon="17.7365721">
        <ele>65.9877</ele>
        <time>2012-07-16T10:41:22Z</time>
      </trkpt>
      <trkpt lat="59.9965991" lon="17.7364719">
        <ele>60.7003</ele>
        <time>2012-07-16T10:41:26Z</time>
      </trkpt>
      <trkpt lat="59.9966102" lon="17.7365115">
        <ele>60.7003</ele>
        <time>2012-07-16T10:41:28Z</time>
      </trkpt>
      <trkpt lat="59.9965092" lon="17.7364358">
        <ele>60.7003</ele>
        <time>2012-07-16T10:41:33Z</time>
      </trkpt>
      <trkpt lat="59.9962833" lon="17.7362728">
        <ele>57.3358</ele>
        <time>2012-07-16T10:41:39Z</time>
      </trkpt>
      <trkpt lat="59.9961382" lon="17.7361627">
        <ele>53.9712</ele>
        <time>2012-07-16T10:41:45Z</time>
      </trkpt>
      <trkpt lat="59.9959786" lon="17.7360706">
        <ele>53.4905</ele>
        <time>2012-07-16T10:41:51Z</time>
      </trkpt>
      <trkpt lat="59.9959107" lon="17.736077">
        <ele>58.7777</ele>
        <time>2012-07-16T10:41:55Z</time>
      </trkpt>
      <trkpt lat="59.9957087" lon="17.7359846">
        <ele>55.4131</ele>
        <time>2012-07-16T10:42:01Z</time>
      </trkpt>
      <trkpt lat="59.9956914" lon="17.7360914">
        <ele>58.7777</ele>
        <time>2012-07-16T10:42:05Z</time>
      </trkpt>
      <trkpt lat="59.9957201" lon="17.736287">
        <ele>61.6617</ele>
        <time>2012-07-16T10:42:10Z</time>
      </trkpt>
      <trkpt lat="59.9957077" lon="17.736284">
        <ele>62.1423</ele>
        <time>2012-07-16T10:42:11Z</time>
      </trkpt>
      <trkpt lat="59.9956187" lon="17.7362499">
        <ele>62.1423</ele>
        <time>2012-07-16T10:42:14Z</time>
      </trkpt>
      <trkpt lat="59.9955029" lon="17.7362716">
        <ele>63.1036</ele>
        <time>2012-07-16T10:42:18Z</time>
      </trkpt>
      <trkpt lat="59.9952778" lon="17.7362038">
        <ele>62.6229</ele>
        <time>2012-07-16T10:42:24Z</time>
      </trkpt>
      <trkpt lat="59.9950467" lon="17.7361111">
        <ele>64.0651</ele>
        <time>2012-07-16T10:42:29Z</time>
      </trkpt>
      <trkpt lat="59.9950317" lon="17.7361509">
        <ele>66.4683</ele>
        <time>2012-07-16T10:42:31Z</time>
      </trkpt>
      <trkpt lat="59.9949456" lon="17.7361533">
        <ele>66.949</ele>
        <time>2012-07-16T10:42:36Z</time>
      </trkpt>
      <trkpt lat="59.9948069" lon="17.7360855">
        <ele>66.4683</ele>
        <time>2012-07-16T10:42:42Z</time>
      </trkpt>
      <trkpt lat="59.9947422" lon="17.7360327">
        <ele>65.9877</ele>
        <time>2012-07-16T10:42:44Z</time>
      </trkpt>
      <trkpt lat="59.9946524" lon="17.7360568">
        <ele>73.6782</ele>
        <time>2012-07-16T10:42:49Z</time>
      </trkpt>
      <trkpt lat="59.9945015" lon="17.735967">
        <ele>73.6782</ele>
        <time>2012-07-16T10:42:54Z</time>
      </trkpt>
      <trkpt lat="59.994361" lon="17.7358762">
        <ele>73.6782</ele>
        <time>2012-07-16T10:42:59Z</time>
      </trkpt>
      <trkpt lat="59.9942185" lon="17.7358463">
        <ele>70.7942</ele>
        <time>2012-07-16T10:43:05Z</time>
      </trkpt>
      <trkpt lat="59.9940951" lon="17.7357649">
        <ele>67.4297</ele>
        <time>2012-07-16T10:43:09Z</time>
      </trkpt>
      <trkpt lat="59.9939667" lon="17.7356867">
        <ele>66.949</ele>
        <time>2012-07-16T10:43:14Z</time>
      </trkpt>
      <trkpt lat="59.993759" lon="17.7355683">
        <ele>66.949</ele>
        <time>2012-07-16T10:43:19Z</time>
      </trkpt>
      <trkpt lat="59.9936454" lon="17.735495">
        <ele>65.9877</ele>
        <time>2012-07-16T10:43:21Z</time>
      </trkpt>
      <trkpt lat="59.9935123" lon="17.7354283">
        <ele>65.5071</ele>
        <time>2012-07-16T10:43:24Z</time>
      </trkpt>
      <trkpt lat="59.9935766" lon="17.7356054">
        <ele>68.8716</ele>
        <time>2012-07-16T10:43:29Z</time>
      </trkpt>
      <trkpt lat="59.99353" lon="17.7356042">
        <ele>71.2749</ele>
        <time>2012-07-16T10:43:32Z</time>
      </trkpt>
      <trkpt lat="59.9934076" lon="17.7356436">
        <ele>72.7169</ele>
        <time>2012-07-16T10:43:37Z</time>
      </trkpt>
      <trkpt lat="59.9933823" lon="17.735756">
        <ele>73.6782</ele>
        <time>2012-07-16T10:43:42Z</time>
      </trkpt>
      <trkpt lat="59.9933998" lon="17.7358546">
        <ele>75.6008</ele>
        <time>2012-07-16T10:43:44Z</time>
      </trkpt>
      <trkpt lat="59.9933303" lon="17.7359556">
        <ele>76.0814</ele>
        <time>2012-07-16T10:43:48Z</time>
      </trkpt>
      <trkpt lat="59.9933135" lon="17.7362587">
        <ele>72.7169</ele>
        <time>2012-07-16T10:43:54Z</time>
      </trkpt>
      <trkpt lat="59.993277" lon="17.7364491">
        <ele>71.7555</ele>
        <time>2012-07-16T10:43:58Z</time>
      </trkpt>
      <trkpt lat="59.9932451" lon="17.7366757">
        <ele>70.3135</ele>
        <time>2012-07-16T10:44:03Z</time>
      </trkpt>
      <trkpt lat="59.9931091" lon="17.736819">
        <ele>64.5457</ele>
        <time>2012-07-16T10:44:09Z</time>
      </trkpt>
      <trkpt lat="59.9930239" lon="17.7369673">
        <ele>65.9877</ele>
        <time>2012-07-16T10:44:14Z</time>
      </trkpt>
      <trkpt lat="59.9929875" lon="17.7369606">
        <ele>65.0264</ele>
        <time>2012-07-16T10:44:15Z</time>
      </trkpt>
      <trkpt lat="59.9928427" lon="17.737141">
        <ele>61.6617</ele>
        <time>2012-07-16T10:44:22Z</time>
      </trkpt>
      <trkpt lat="59.9928054" lon="17.7372464">
        <ele>62.1423</ele>
        <time>2012-07-16T10:44:25Z</time>
      </trkpt>
      <trkpt lat="59.9928139" lon="17.7373624">
        <ele>64.5457</ele>
        <time>2012-07-16T10:44:27Z</time>
      </trkpt>
      <trkpt lat="59.9926689" lon="17.7373585">
        <ele>60.2197</ele>
        <time>2012-07-16T10:44:31Z</time>
      </trkpt>
      <trkpt lat="59.9925877" lon="17.7374546">
        <ele>61.6617</ele>
        <time>2012-07-16T10:44:35Z</time>
      </trkpt>
      <trkpt lat="59.9923763" lon="17.737437">
        <ele>62.6229</ele>
        <time>2012-07-16T10:44:40Z</time>
      </trkpt>
      <trkpt lat="59.992211" lon="17.7375025">
        <ele>66.949</ele>
        <time>2012-07-16T10:44:45Z</time>
      </trkpt>
      <trkpt lat="59.9921624" lon="17.7376208">
        <ele>69.3523</ele>
        <time>2012-07-16T10:44:50Z</time>
      </trkpt>
      <trkpt lat="59.9920042" lon="17.7376734">
        <ele>72.7169</ele>
        <time>2012-07-16T10:44:56Z</time>
      </trkpt>
      <trkpt lat="59.991853" lon="17.7376117">
        <ele>66.949</ele>
        <time>2012-07-16T10:45:00Z</time>
      </trkpt>
      <trkpt lat="59.9916951" lon="17.7375335">
        <ele>67.4297</ele>
        <time>2012-07-16T10:45:04Z</time>
      </trkpt>
      <trkpt lat="59.9916233" lon="17.7375168">
        <ele>69.3523</ele>
        <time>2012-07-16T10:45:08Z</time>
      </trkpt>
      <trkpt lat="59.9916266" lon="17.7377847">
        <ele>77.0428</ele>
        <time>2012-07-16T10:45:13Z</time>
      </trkpt>
      <trkpt lat="59.9915299" lon="17.737792">
        <ele>77.5234</ele>
        <time>2012-07-16T10:45:16Z</time>
      </trkpt>
      <trkpt lat="59.9914937" lon="17.7379738">
        <ele>87.6172</ele>
        <time>2012-07-16T10:45:21Z</time>
      </trkpt>
      <trkpt lat="59.9913836" lon="17.7379028">
        <ele>88.098</ele>
        <time>2012-07-16T10:45:25Z</time>
      </trkpt>
      <trkpt lat="59.9912852" lon="17.7379197">
        <ele>83.2914</ele>
        <time>2012-07-16T10:45:29Z</time>
      </trkpt>
      <trkpt lat="59.9910798" lon="17.7377997">
        <ele>74.6395</ele>
        <time>2012-07-16T10:45:34Z</time>
      </trkpt>
      <trkpt lat="59.9909193" lon="17.7378654">
        <ele>75.6008</ele>
        <time>2012-07-16T10:45:39Z</time>
      </trkpt>
      <trkpt lat="59.9908848" lon="17.7380044">
        <ele>77.0428</ele>
        <time>2012-07-16T10:45:43Z</time>
      </trkpt>
      <trkpt lat="59.9908775" lon="17.7382328">
        <ele>78.9655</ele>
        <time>2012-07-16T10:45:48Z</time>
      </trkpt>
      <trkpt lat="59.9908592" lon="17.7383167">
        <ele>82.3301</ele>
        <time>2012-07-16T10:45:51Z</time>
      </trkpt>
      <trkpt lat="59.9907328" lon="17.7383281">
        <ele>82.3301</ele>
        <time>2012-07-16T10:45:55Z</time>
      </trkpt>
      <trkpt lat="59.9904899" lon="17.7382892">
        <ele>76.0814</ele>
        <time>2012-07-16T10:46:02Z</time>
      </trkpt>
      <trkpt lat="59.9903037" lon="17.7382207">
        <ele>70.3135</ele>
        <time>2012-07-16T10:46:07Z</time>
      </trkpt>
      <trkpt lat="59.9902174" lon="17.7382624">
        <ele>68.8716</ele>
        <time>2012-07-16T10:46:12Z</time>
      </trkpt>
      <trkpt lat="59.9901524" lon="17.7384324">
        <ele>68.8716</ele>
        <time>2012-07-16T10:46:18Z</time>
      </trkpt>
      <trkpt lat="59.9900826" lon="17.7385037">
        <ele>67.9103</ele>
        <time>2012-07-16T10:46:22Z</time>
      </trkpt>
      <trkpt lat="59.9899728" lon="17.7386132">
        <ele>74.6395</ele>
        <time>2012-07-16T10:46:28Z</time>
      </trkpt>
      <trkpt lat="59.9898664" lon="17.7386747">
        <ele>73.6782</ele>
        <time>2012-07-16T10:46:33Z</time>
      </trkpt>
      <trkpt lat="59.9897174" lon="17.7387196">
        <ele>69.8329</ele>
        <time>2012-07-16T10:46:38Z</time>
      </trkpt>
      <trkpt lat="59.9895199" lon="17.7386657">
        <ele>69.8329</ele>
        <time>2012-07-16T10:46:43Z</time>
      </trkpt>
      <trkpt lat="59.9893543" lon="17.7386654">
        <ele>66.4683</ele>
        <time>2012-07-16T10:46:48Z</time>
      </trkpt>
      <trkpt lat="59.9891243" lon="17.7386229">
        <ele>66.4683</ele>
        <time>2012-07-16T10:46:54Z</time>
      </trkpt>
      <trkpt lat="59.9889026" lon="17.7384898">
        <ele>60.7003</ele>
        <time>2012-07-16T10:46:59Z</time>
      </trkpt>
      <trkpt lat="59.9888214" lon="17.7386046">
        <ele>58.2971</ele>
        <time>2012-07-16T10:47:05Z</time>
      </trkpt>
      <trkpt lat="59.9888052" lon="17.7387186">
        <ele>57.3358</ele>
        <time>2012-07-16T10:47:08Z</time>
      </trkpt>
      <trkpt lat="59.9888232" lon="17.7389426">
        <ele>64.0651</ele>
        <time>2012-07-16T10:47:12Z</time>
      </trkpt>
      <trkpt lat="59.9888886" lon="17.7393305">
        <ele>78.4847</ele>
        <time>2012-07-16T10:47:18Z</time>
      </trkpt>
      <trkpt lat="59.9889139" lon="17.7394424">
        <ele>83.2914</ele>
        <time>2012-07-16T10:47:20Z</time>
      </trkpt>
      <trkpt lat="59.9889502" lon="17.7397434">
        <ele>93.8658</ele>
        <time>2012-07-16T10:47:26Z</time>
      </trkpt>
      <trkpt lat="59.9888663" lon="17.7397113">
        <ele>90.0206</ele>
        <time>2012-07-16T10:47:29Z</time>
      </trkpt>
      <trkpt lat="59.9887855" lon="17.7396745">
        <ele>84.2527</ele>
        <time>2012-07-16T10:47:31Z</time>
      </trkpt>
      <trkpt lat="59.9886585" lon="17.7396966">
        <ele>77.0428</ele>
        <time>2012-07-16T10:47:36Z</time>
      </trkpt>
      <trkpt lat="59.9885078" lon="17.7396722">
        <ele>71.2749</ele>
        <time>2012-07-16T10:47:40Z</time>
      </trkpt>
      <trkpt lat="59.9882271" lon="17.739547">
        <ele>62.6229</ele>
        <time>2012-07-16T10:47:45Z</time>
      </trkpt>
      <trkpt lat="59.9881887" lon="17.7395319">
        <ele>62.6229</ele>
        <time>2012-07-16T10:47:46Z</time>
      </trkpt>
      <trkpt lat="59.987862" lon="17.7393968">
        <ele>61.6617</ele>
        <time>2012-07-16T10:47:51Z</time>
      </trkpt>
      <trkpt lat="59.9877358" lon="17.7393459">
        <ele>60.2197</ele>
        <time>2012-07-16T10:47:54Z</time>
      </trkpt>
      <trkpt lat="59.9876428" lon="17.7393412">
        <ele>57.3358</ele>
        <time>2012-07-16T10:47:57Z</time>
      </trkpt>
      <trkpt lat="59.9875397" lon="17.7393484">
        <ele>59.2584</ele>
        <time>2012-07-16T10:48:02Z</time>
      </trkpt>
      <trkpt lat="59.9874852" lon="17.7394951">
        <ele>68.3909</ele>
        <time>2012-07-16T10:48:08Z</time>
      </trkpt>
      <trkpt lat="59.9874773" lon="17.7396123">
        <ele>72.2362</ele>
        <time>2012-07-16T10:48:12Z</time>
      </trkpt>
      <trkpt lat="59.9873869" lon="17.7396329">
        <ele>71.7555</ele>
        <time>2012-07-16T10:48:16Z</time>
      </trkpt>
      <trkpt lat="59.9872438" lon="17.7395863">
        <ele>65.0264</ele>
        <time>2012-07-16T10:48:21Z</time>
      </trkpt>
      <trkpt lat="59.9872069" lon="17.7395826">
        <ele>63.1036</ele>
        <time>2012-07-16T10:48:22Z</time>
      </trkpt>
      <trkpt lat="59.9870377" lon="17.7395153">
        <ele>62.1423</ele>
        <time>2012-07-16T10:48:28Z</time>
      </trkpt>
      <trkpt lat="59.9869746" lon="17.7394486">
        <ele>60.2197</ele>
        <time>2012-07-16T10:48:30Z</time>
      </trkpt>
      <trkpt lat="59.9867943" lon="17.7392553">
        <ele>62.6229</ele>
        <time>2012-07-16T10:48:37Z</time>
      </trkpt>
      <trkpt lat="59.9866492" lon="17.7391109">
        <ele>56.3745</ele>
        <time>2012-07-16T10:48:43Z</time>
      </trkpt>
      <trkpt lat="59.9865084" lon="17.7389768">
        <ele>53.0098</ele>
        <time>2012-07-16T10:48:48Z</time>
      </trkpt>
      <trkpt lat="59.9863405" lon="17.7388243">
        <ele>57.8165</ele>
        <time>2012-07-16T10:48:54Z</time>
      </trkpt>
      <trkpt lat="59.9862151" lon="17.7387274">
        <ele>53.0098</ele>
        <time>2012-07-16T10:48:59Z</time>
      </trkpt>
      <trkpt lat="59.9861647" lon="17.7387534">
        <ele>55.8938</ele>
        <time>2012-07-16T10:49:04Z</time>
      </trkpt>
      <trkpt lat="59.9860157" lon="17.7386194">
        <ele>56.8551</ele>
        <time>2012-07-16T10:49:09Z</time>
      </trkpt>
      <trkpt lat="59.9858442" lon="17.7385161">
        <ele>59.7391</ele>
        <time>2012-07-16T10:49:15Z</time>
      </trkpt>
      <trkpt lat="59.9857163" lon="17.7384229">
        <ele>59.2584</ele>
        <time>2012-07-16T10:49:22Z</time>
      </trkpt>
      <trkpt lat="59.9855753" lon="17.7383832">
        <ele>55.4131</ele>
        <time>2012-07-16T10:49:27Z</time>
      </trkpt>
      <trkpt lat="59.9855296" lon="17.7384462">
        <ele>59.7391</ele>
        <time>2012-07-16T10:49:31Z</time>
      </trkpt>
      <trkpt lat="59.9854462" lon="17.7384183">
        <ele>60.2197</ele>
        <time>2012-07-16T10:49:34Z</time>
      </trkpt>
      <trkpt lat="59.9851852" lon="17.7381764">
        <ele>61.181</ele>
        <time>2012-07-16T10:49:39Z</time>
      </trkpt>
      <trkpt lat="59.9851341" lon="17.7381468">
        <ele>61.6617</ele>
        <time>2012-07-16T10:49:41Z</time>
      </trkpt>
      <trkpt lat="59.9850103" lon="17.7380801">
        <ele>61.181</ele>
        <time>2012-07-16T10:49:45Z</time>
      </trkpt>
      <trkpt lat="59.9848717" lon="17.7380769">
        <ele>59.2584</ele>
        <time>2012-07-16T10:49:51Z</time>
      </trkpt>
      <trkpt lat="59.9848013" lon="17.7380653">
        <ele>58.7777</ele>
        <time>2012-07-16T10:49:55Z</time>
      </trkpt>
      <trkpt lat="59.9848358" lon="17.7381884">
        <ele>60.7003</ele>
        <time>2012-07-16T10:49:59Z</time>
      </trkpt>
      <trkpt lat="59.9846807" lon="17.7381661">
        <ele>58.7777</ele>
        <time>2012-07-16T10:50:05Z</time>
      </trkpt>
      <trkpt lat="59.9844642" lon="17.7380397">
        <ele>54.9324</ele>
        <time>2012-07-16T10:50:11Z</time>
      </trkpt>
      <trkpt lat="59.9843529" lon="17.7380546">
        <ele>59.7391</ele>
        <time>2012-07-16T10:50:16Z</time>
      </trkpt>
      <trkpt lat="59.9841453" lon="17.7379892">
        <ele>57.3358</ele>
        <time>2012-07-16T10:50:22Z</time>
      </trkpt>
      <trkpt lat="59.984025" lon="17.7379503">
        <ele>60.7003</ele>
        <time>2012-07-16T10:50:27Z</time>
      </trkpt>
      <trkpt lat="59.9840272" lon="17.7380643">
        <ele>65.5071</ele>
        <time>2012-07-16T10:50:32Z</time>
      </trkpt>
      <trkpt lat="59.9839212" lon="17.7381304">
        <ele>65.5071</ele>
        <time>2012-07-16T10:50:40Z</time>
      </trkpt>
      <trkpt lat="59.9838893" lon="17.7382498">
        <ele>66.4683</ele>
        <time>2012-07-16T10:50:44Z</time>
      </trkpt>
      <trkpt lat="59.9837743" lon="17.7383592">
        <ele>71.2749</ele>
        <time>2012-07-16T10:50:50Z</time>
      </trkpt>
      <trkpt lat="59.9836737" lon="17.7384053">
        <ele>74.6395</ele>
        <time>2012-07-16T10:50:54Z</time>
      </trkpt>
      <trkpt lat="59.9836044" lon="17.7384258">
        <ele>78.9655</ele>
        <time>2012-07-16T10:50:58Z</time>
      </trkpt>
      <trkpt lat="59.983507" lon="17.7384178">
        <ele>73.1976</ele>
        <time>2012-07-16T10:51:02Z</time>
      </trkpt>
      <trkpt lat="59.9834676" lon="17.7384022">
        <ele>70.7942</ele>
        <time>2012-07-16T10:51:03Z</time>
      </trkpt>
      <trkpt lat="59.983375" lon="17.7384478">
        <ele>70.3135</ele>
        <time>2012-07-16T10:51:07Z</time>
      </trkpt>
      <trkpt lat="59.9830458" lon="17.7382876">
        <ele>59.2584</ele>
        <time>2012-07-16T10:51:13Z</time>
      </trkpt>
      <trkpt lat="59.9828331" lon="17.7382053">
        <ele>58.7777</ele>
        <time>2012-07-16T10:51:18Z</time>
      </trkpt>
      <trkpt lat="59.9828057" lon="17.73821">
        <ele>59.7391</ele>
        <time>2012-07-16T10:51:19Z</time>
      </trkpt>
      <trkpt lat="59.9827824" lon="17.7382448">
        <ele>62.6229</ele>
        <time>2012-07-16T10:51:21Z</time>
      </trkpt>
      <trkpt lat="59.982642" lon="17.7382606">
        <ele>66.949</ele>
        <time>2012-07-16T10:51:27Z</time>
      </trkpt>
      <trkpt lat="59.9826025" lon="17.738326">
        <ele>70.7942</ele>
        <time>2012-07-16T10:51:30Z</time>
      </trkpt>
      <trkpt lat="59.9824025" lon="17.7382106">
        <ele>65.0264</ele>
        <time>2012-07-16T10:51:35Z</time>
      </trkpt>
      <trkpt lat="59.9823209" lon="17.7382623">
        <ele>66.949</ele>
        <time>2012-07-16T10:51:40Z</time>
      </trkpt>
      <trkpt lat="59.9822001" lon="17.7383142">
        <ele>66.949</ele>
        <time>2012-07-16T10:51:46Z</time>
      </trkpt>
      <trkpt lat="59.9820498" lon="17.7384854">
        <ele>71.2749</ele>
        <time>2012-07-16T10:51:53Z</time>
      </trkpt>
      <trkpt lat="59.9818809" lon="17.738544">
        <ele>72.7169</ele>
        <time>2012-07-16T10:51:58Z</time>
      </trkpt>
      <trkpt lat="59.9816686" lon="17.7384645">
        <ele>67.9103</ele>
        <time>2012-07-16T10:52:03Z</time>
      </trkpt>
      <trkpt lat="59.9815598" lon="17.7384566">
        <ele>62.1423</ele>
        <time>2012-07-16T10:52:08Z</time>
      </trkpt>
      <trkpt lat="59.9814387" lon="17.7385217">
        <ele>61.6617</ele>
        <time>2012-07-16T10:52:14Z</time>
      </trkpt>
      <trkpt lat="59.9812794" lon="17.738588">
        <ele>61.181</ele>
        <time>2012-07-16T10:52:20Z</time>
      </trkpt>
      <trkpt lat="59.9811046" lon="17.738569">
        <ele>59.7391</ele>
        <time>2012-07-16T10:52:25Z</time>
      </trkpt>
      <trkpt lat="59.980967" lon="17.7386851">
        <ele>63.1036</ele>
        <time>2012-07-16T10:52:31Z</time>
      </trkpt>
      <trkpt lat="59.9809061" lon="17.7387856">
        <ele>67.4297</ele>
        <time>2012-07-16T10:52:35Z</time>
      </trkpt>
      <trkpt lat="59.9807293" lon="17.7387781">
        <ele>62.1423</ele>
        <time>2012-07-16T10:52:40Z</time>
      </trkpt>
      <trkpt lat="59.9806997" lon="17.7388858">
        <ele>59.7391</ele>
        <time>2012-07-16T10:52:45Z</time>
      </trkpt>
      <trkpt lat="59.9805741" lon="17.7388859">
        <ele>50.6066</ele>
        <time>2012-07-16T10:52:51Z</time>
      </trkpt>
      <trkpt lat="59.9803645" lon="17.7387765">
        <ele>40.9934</ele>
        <time>2012-07-16T10:52:56Z</time>
      </trkpt>
      <trkpt lat="59.980201" lon="17.738712">
        <ele>36.6675</ele>
        <time>2012-07-16T10:53:00Z</time>
      </trkpt>
      <trkpt lat="59.9801166" lon="17.7387722">
        <ele>35.2255</ele>
        <time>2012-07-16T10:53:05Z</time>
      </trkpt>
      <trkpt lat="59.9798906" lon="17.7386238">
        <ele>34.2642</ele>
        <time>2012-07-16T10:53:10Z</time>
      </trkpt>
      <trkpt lat="59.9798028" lon="17.7386574">
        <ele>30.4188</ele>
        <time>2012-07-16T10:53:15Z</time>
      </trkpt>
      <trkpt lat="59.9796789" lon="17.7387408">
        <ele>35.2255</ele>
        <time>2012-07-16T10:53:20Z</time>
      </trkpt>
      <trkpt lat="59.9795617" lon="17.7388296">
        <ele>36.6675</ele>
        <time>2012-07-16T10:53:26Z</time>
      </trkpt>
      <trkpt lat="59.9794546" lon="17.7390239">
        <ele>34.2642</ele>
        <time>2012-07-16T10:53:33Z</time>
      </trkpt>
      <trkpt lat="59.9792665" lon="17.7390089">
        <ele>29.4575</ele>
        <time>2012-07-16T10:53:37Z</time>
      </trkpt>
      <trkpt lat="59.9790748" lon="17.739086">
        <ele>32.8223</ele>
        <time>2012-07-16T10:53:42Z</time>
      </trkpt>
      <trkpt lat="59.9790071" lon="17.739169">
        <ele>32.3416</ele>
        <time>2012-07-16T10:53:45Z</time>
      </trkpt>
      <trkpt lat="59.9789198" lon="17.7393072">
        <ele>38.5901</ele>
        <time>2012-07-16T10:53:50Z</time>
      </trkpt>
    </trkseg>
  </trk>
</gpx>